Time;durP1;ratioP1;P1;durP2;ratioP2;P2;SDS_P1;SDS_P2;PMS_P1;PMS_P2;Temp;Humidity;BMP_temperature;BMP_pressure;BME280_temperature;BME280_humidity;BME280_pressure;Samples;Min_cycle;Max_cycle;Signal;HPM_P1;HPM_P2
2023/03/09 03:06:40;;;;;;;1999.90;999.90;;;;;;;;;;5919175;22;20247;-71
2023/03/09 03:09:26;;;;;;;1999.90;999.90;;;;;;;;;;4982897;28;20467;-69
2023/03/09 03:12:11;;;;;;;1999.90;999.90;;;;;;;;;;4991277;28;20433;-70
2023/03/09 03:14:56;;;;;;;1999.90;999.90;;;;;;;;;;4992100;28;20208;-69
2023/03/09 03:17:42;;;;;;;1999.90;999.90;;;;;;;;;;4982568;28;20453;-66
2023/03/09 03:20:27;;;;;;;1999.90;999.90;;;;;;;;;;4980378;28;20788;-64
2023/03/09 03:23:14;;;;;;;1999.90;999.90;;;;;;;;;;4989567;28;20424;-68
2023/03/09 03:26:04;;;;;;;1999.90;999.90;;;;;;;;;;4987420;28;20695;-69
2023/03/09 03:28:49;;;;;;;1999.90;999.90;;;;;;;;;;4974164;28;20422;-69
2023/03/09 03:31:34;;;;;;;1999.90;999.90;;;;;;;;;;4974215;28;20402;-69
2023/03/09 03:34:19;;;;;;;1999.90;999.90;;;;;;;;;;4990239;28;20257;-69
2023/03/09 03:37:05;;;;;;;1999.90;999.90;;;;;;;;;;4987115;28;20239;-70
2023/03/09 03:39:52;;;;;;;1999.90;999.90;;;;;;;;;;4981214;28;20207;-69
2023/03/09 03:42:37;;;;;;;1999.90;999.90;;;;;;;;;;4980911;28;20767;-69
2023/03/09 03:45:22;;;;;;;1999.90;999.90;;;;;;;;;;4979914;28;20212;-69
2023/03/09 03:48:07;;;;;;;1999.90;999.90;;;;;;;;;;4985267;28;20315;-67
2023/03/09 03:50:52;;;;;;;1999.90;999.90;;;;;;;;;;4986029;28;20355;-68
2023/03/09 03:53:37;;;;;;;1999.90;999.90;;;;;;;;;;4985744;28;20219;-69
2023/03/09 03:56:24;;;;;;;1999.90;999.90;;;;;;;;;;4987902;28;20605;-68
2023/03/09 03:59:09;;;;;;;1999.90;999.90;;;;;;;;;;4995790;28;20215;-68
2023/03/09 04:01:54;;;;;;;1999.90;999.90;;;;;;;;;;4990025;28;20308;-69
2023/03/09 04:04:38;;;;;;;1999.90;999.90;;;;;;;;;;4993912;28;20413;-69
2023/03/09 04:07:23;;;;;;;1999.90;999.90;;;;;;;;;;4995061;28;20579;-69
2023/03/09 04:10:09;;;;;;;1999.90;999.90;;;;;;;;;;4995429;28;20227;-69
2023/03/09 04:12:55;;;;;;;1999.90;999.90;;;;;;;;;;4995508;28;20215;-69
2023/03/09 04:15:40;;;;;;;1999.90;999.90;;;;;;;;;;4994962;28;20413;-69
2023/03/09 04:18:25;;;;;;;1999.90;999.90;;;;;;;;;;4995217;28;20852;-70
2023/03/09 04:21:10;;;;;;;1999.90;999.90;;;;;;;;;;4995492;28;20216;-70
2023/03/09 04:23:55;;;;;;;1999.90;999.90;;;;;;;;;;4995396;28;20290;-69
2023/03/09 04:26:40;;;;;;;1999.90;999.90;;;;;;;;;;4994113;28;20223;-69
2023/03/09 04:29:26;;;;;;;1999.90;999.90;;;;;;;;;;4993223;28;20219;-69
2023/03/09 04:32:11;;;;;;;1999.90;999.90;;;;;;;;;;4994137;28;20219;-69
2023/03/09 04:34:56;;;;;;;1999.90;999.90;;;;;;;;;;4989494;28;20711;-70
2023/03/09 04:37:41;;;;;;;1999.90;999.90;;;;;;;;;;4987288;28;20429;-70
2023/03/09 04:40:26;;;;;;;1999.90;999.90;;;;;;;;;;4994106;28;20325;-69
2023/03/09 04:43:11;;;;;;;1999.90;999.90;;;;;;;;;;4991315;28;20219;-69
2023/03/09 04:45:57;;;;;;;1999.90;999.90;;;;;;;;;;4993151;28;20906;-69
2023/03/09 04:48:42;;;;;;;1999.90;999.90;;;;;;;;;;4987020;28;20779;-70
2023/03/09 04:51:29;;;;;;;1999.90;999.90;;;;;;;;;;4994704;28;20230;-70
2023/03/09 04:54:13;;;;;;;1999.90;999.90;;;;;;;;;;4994857;28;20275;-69
2023/03/09 04:56:58;;;;;;;1999.90;999.90;;;;;;;;;;4994697;28;20243;-69
2023/03/09 04:59:43;;;;;;;1999.90;999.90;;;;;;;;;;4991525;28;20271;-69
2023/03/09 05:02:29;;;;;;;1999.90;999.90;;;;;;;;;;4993714;28;20439;-69
2023/03/09 05:05:16;;;;;;;1999.90;999.90;;;;;;;;;;4993696;28;20219;-70
2023/03/09 05:08:01;;;;;;;1999.90;999.90;;;;;;;;;;4989003;28;20238;-69
2023/03/09 05:10:46;;;;;;;1999.90;999.90;;;;;;;;;;4993329;28;20238;-69
2023/03/09 05:13:31;;;;;;;1999.90;999.90;;;;;;;;;;4994307;28;20207;-70
2023/03/09 05:16:16;;;;;;;1999.90;999.90;;;;;;;;;;4993108;28;20602;-69
2023/03/09 05:19:02;;;;;;;1999.90;999.90;;;;;;;;;;4993313;28;20202;-69
2023/03/09 05:21:47;;;;;;;1999.90;999.90;;;;;;;;;;4986922;28;20199;-70
2023/03/09 05:24:33;;;;;;;1999.90;999.90;;;;;;;;;;4993503;28;20710;-69
2023/03/09 05:27:18;;;;;;;1999.90;999.90;;;;;;;;;;4994030;28;20235;-70
2023/03/09 05:30:03;;;;;;;1999.90;999.90;;;;;;;;;;4993010;28;20222;-68
2023/03/09 05:32:49;;;;;;;1999.90;999.90;;;;;;;;;;4986987;28;20254;-70
2023/03/09 05:35:36;;;;;;;1999.90;999.90;;;;;;;;;;4991798;28;20441;-69
2023/03/09 05:38:21;;;;;;;1999.90;999.90;;;;;;;;;;4993651;28;20599;-69
2023/03/09 05:41:06;;;;;;;1999.90;999.90;;;;;;;;;;4993829;28;20211;-69
2023/03/09 05:43:51;;;;;;;1999.90;999.90;;;;;;;;;;4976881;28;20211;-70
2023/03/09 05:46:36;;;;;;;1999.90;999.90;;;;;;;;;;4993300;28;20421;-70
2023/03/09 05:49:21;;;;;;;1999.90;999.90;;;;;;;;;;4992822;28;20218;-69
2023/03/09 05:52:08;;;;;;;1999.90;999.90;;;;;;;;;;4993661;28;20210;-70
2023/03/09 05:54:53;;;;;;;1999.90;999.90;;;;;;;;;;4992496;28;20262;-70
2023/03/09 05:57:38;;;;;;;1999.90;999.90;;;;;;;;;;4992358;28;20735;-70
2023/03/09 06:00:23;;;;;;;1999.90;999.90;;;;;;;;;;4991362;28;20204;-69
2023/03/09 06:03:09;;;;;;;1999.90;999.90;;;;;;;;;;4991871;28;20223;-69
2023/03/09 06:05:58;;;;;;;1999.90;999.90;;;;;;;;;;4986483;28;20258;-69
2023/03/09 06:08:44;;;;;;;1999.90;999.90;;;;;;;;;;4992578;28;20203;-70
2023/03/09 06:11:31;;;;;;;1999.90;999.90;;;;;;;;;;4991203;28;20246;-70
2023/03/09 06:14:16;;;;;;;1999.90;999.90;;;;;;;;;;4992417;28;20214;-70
2023/03/09 06:17:01;;;;;;;1999.90;999.90;;;;;;;;;;4987145;28;20235;-70
2023/03/09 06:19:46;;;;;;;1999.90;999.90;;;;;;;;;;4992090;28;20210;-70
2023/03/09 06:22:31;;;;;;;1999.90;999.90;;;;;;;;;;4992036;28;20418;-70
2023/03/09 06:25:18;;;;;;;1999.90;999.90;;;;;;;;;;4992438;28;20219;-69
2023/03/09 06:28:02;;;;;;;1999.90;999.90;;;;;;;;;;4975321;28;20232;-70
2023/03/09 06:30:47;;;;;;;1999.90;999.90;;;;;;;;;;4985190;28;20424;-70
2023/03/09 06:33:32;;;;;;;1999.90;999.90;;;;;;;;;;4991864;28;20215;-69
2023/03/09 06:36:18;;;;;;;1999.90;999.90;;;;;;;;;;4992408;28;20231;-69
2023/03/09 06:39:04;;;;;;;1999.90;999.90;;;;;;;;;;4992729;28;20290;-69
2023/03/09 06:41:51;;;;;;;1999.90;999.90;;;;;;;;;;4992743;28;20207;-68
2023/03/09 06:44:36;;;;;;;1999.90;999.90;;;;;;;;;;4995593;28;20235;-66
2023/03/09 06:47:21;;;;;;;1999.90;999.90;;;;;;;;;;4980746;28;20711;-68
2023/03/09 06:50:06;;;;;;;1999.90;999.90;;;;;;;;;;4987098;28;20215;-68
2023/03/09 06:52:51;;;;;;;1999.90;999.90;;;;;;;;;;4985410;28;20714;-68
2023/03/09 06:55:37;;;;;;;1999.90;999.90;;;;;;;;;;4979531;28;20219;-68
2023/03/09 06:58:23;;;;;;;1999.90;999.90;;;;;;;;;;4977020;28;20228;-69
2023/03/09 07:01:09;;;;;;;1999.90;999.90;;;;;;;;;;4984211;28;20216;-69
2023/03/09 07:03:54;;;;;;;1999.90;999.90;;;;;;;;;;4981251;28;20207;-68
2023/03/09 07:06:40;;;;;;;1999.90;999.90;;;;;;;;;;4987452;28;20367;-68
2023/03/09 07:09:25;;;;;;;1999.90;999.90;;;;;;;;;;4989903;28;20407;-69
2023/03/09 07:12:10;;;;;;;1999.90;999.90;;;;;;;;;;4983458;28;20247;-69
2023/03/09 07:14:56;;;;;;;1999.90;999.90;;;;;;;;;;4978135;28;20206;-68
2023/03/09 07:17:42;;;;;;;1999.90;999.90;;;;;;;;;;4978445;28;20300;-69
2023/03/09 07:20:27;;;;;;;1999.90;999.90;;;;;;;;;;4987121;28;20410;-67
2023/03/09 07:23:12;;;;;;;1999.90;999.90;;;;;;;;;;4975519;28;20211;-70
2023/03/09 07:25:59;;;;;;;1999.90;999.90;;;;;;;;;;4977485;28;20211;-69
2023/03/09 07:28:44;;;;;;;1999.90;999.90;;;;;;;;;;4982567;28;20719;-69
2023/03/09 07:31:30;;;;;;;1999.90;999.90;;;;;;;;;;4983156;28;20247;-67
2023/03/09 07:34:15;;;;;;;1999.90;999.90;;;;;;;;;;4974609;28;20235;-69
2023/03/09 07:37:00;;;;;;;1999.90;999.90;;;;;;;;;;4985017;28;20231;-69
2023/03/09 07:39:46;;;;;;;1999.90;999.90;;;;;;;;;;4978255;28;20211;-69
2023/03/09 07:42:31;;;;;;;1999.90;999.90;;;;;;;;;;4981061;28;20700;-69
2023/03/09 07:45:16;;;;;;;1999.90;999.90;;;;;;;;;;4979594;28;20215;-66
2023/03/09 07:48:03;;;;;;;1999.90;999.90;;;;;;;;;;4977912;28;20307;-69
2023/03/09 07:50:56;;;;;;;1999.90;999.90;;;;;;;;;;4980658;28;20283;-69
2023/03/09 07:53:41;;;;;;;1999.90;999.90;;;;;;;;;;4980470;28;20203;-69
2023/03/09 07:56:26;;;;;;;1999.90;999.90;;;;;;;;;;4982839;28;20240;-69
2023/03/09 07:59:14;;;;;;;1999.90;999.90;;;;;;;;;;4990405;28;20212;-70
2023/03/09 08:01:59;;;;;;;1999.90;999.90;;;;;;;;;;4986226;28;20805;-70
2023/03/09 08:04:46;;;;;;;1999.90;999.90;;;;;;;;;;4990691;28;20207;-69
2023/03/09 08:07:31;;;;;;;1999.90;999.90;;;;;;;;;;4989849;28;20913;-70
2023/03/09 08:10:16;;;;;;;1999.90;999.90;;;;;;;;;;4989312;28;20270;-69
2023/03/09 08:13:01;;;;;;;1999.90;999.90;;;;;;;;;;4989649;28;20211;-69
2023/03/09 08:15:46;;;;;;;1999.90;999.90;;;;;;;;;;4988361;28;20351;-69
2023/03/09 08:18:31;;;;;;;1999.90;999.90;;;;;;;;;;4989666;28;20254;-69
2023/03/09 08:21:18;;;;;;;1999.90;999.90;;;;;;;;;;4991844;28;20214;-70
2023/03/09 08:24:03;;;;;;;1999.90;999.90;;;;;;;;;;4995015;28;20214;-69
2023/03/09 08:26:47;;;;;;;1999.90;999.90;;;;;;;;;;4994923;28;20608;-68
2023/03/09 08:29:33;;;;;;;1999.90;999.90;;;;;;;;;;4994108;28;20219;-71
2023/03/09 08:32:18;;;;;;;1999.90;999.90;;;;;;;;;;4990995;28;20258;-68
2023/03/09 08:35:03;;;;;;;1999.90;999.90;;;;;;;;;;4988424;28;20302;-69
2023/03/09 08:37:50;;;;;;;1999.90;999.90;;;;;;;;;;4994044;28;20250;-68
2023/03/09 08:40:35;;;;;;;1999.90;999.90;;;;;;;;;;4990939;28;20448;-69
2023/03/09 08:43:21;;;;;;;1999.90;999.90;;;;;;;;;;4992567;28;20584;-68
2023/03/09 08:46:06;;;;;;;1999.90;999.90;;;;;;;;;;4990280;28;20730;-68
2023/03/09 08:48:51;;;;;;;1999.90;999.90;;;;;;;;;;4989569;28;20299;-70
2023/03/09 08:51:36;;;;;;;1999.90;999.90;;;;;;;;;;4988546;28;20760;-69
2023/03/09 08:54:22;;;;;;;1999.90;999.90;;;;;;;;;;4989826;28;20444;-69
2023/03/09 08:57:07;;;;;;;1999.90;999.90;;;;;;;;;;4989590;28;20242;-69
2023/03/09 08:59:52;;;;;;;1999.90;999.90;;;;;;;;;;4988130;28;20218;-69
2023/03/09 09:02:37;;;;;;;1999.90;999.90;;;;;;;;;;4987693;28;20220;-69
2023/03/09 09:05:23;;;;;;;1999.90;999.90;;;;;;;;;;4989256;28;20223;-68
2023/03/09 09:08:07;;;;;;;1999.90;999.90;;;;;;;;;;4987321;28;20243;-68
2023/03/09 09:10:56;;;;;;;1999.90;999.90;;;;;;;;;;4989891;28;20255;-69
2023/03/09 09:13:41;;;;;;;1999.90;999.90;;;;;;;;;;4990382;28;20212;-69
2023/03/09 09:16:27;;;;;;;1999.90;999.90;;;;;;;;;;4989375;28;20595;-70
2023/03/09 09:19:12;;;;;;;1999.90;999.90;;;;;;;;;;4991458;28;20223;-69
2023/03/09 09:21:59;;;;;;;1999.90;999.90;;;;;;;;;;4991142;28;20207;-69
2023/03/09 09:24:44;;;;;;;1999.90;999.90;;;;;;;;;;4990037;28;20410;-68
2023/03/09 09:27:30;;;;;;;1999.90;999.90;;;;;;;;;;4991713;28;20230;-68
2023/03/09 09:30:15;;;;;;;1999.90;999.90;;;;;;;;;;4991705;28;20216;-68
2023/03/09 09:33:00;;;;;;;1999.90;999.90;;;;;;;;;;4991090;28;20222;-67
2023/03/09 09:35:54;;;;;;;1999.90;999.90;;;;;;;;;;4989468;28;20735;-69
2023/03/09 09:38:39;;;;;;;1999.90;999.90;;;;;;;;;;4991241;28;20826;-69
2023/03/09 09:41:26;;;;;;;1999.90;999.90;;;;;;;;;;4989725;28;20303;-67
2023/03/09 09:44:15;;;;;;;1999.90;999.90;;;;;;;;;;4991294;28;20207;-70
2023/03/09 09:47:03;;;;;;;1999.90;999.90;;;;;;;;;;4991001;28;20239;-69
2023/03/09 09:49:49;;;;;;;1999.90;999.90;;;;;;;;;;4990876;28;20211;-69
2023/03/09 09:52:39;;;;;;;1999.90;999.90;;;;;;;;;;4991217;28;20223;-69
2023/03/09 09:55:26;;;;;;;1999.90;999.90;;;;;;;;;;4989437;28;20207;-70
2023/03/09 09:58:17;;;;;;;1999.90;999.90;;;;;;;;;;4987842;28;20600;-71
2023/03/09 10:01:05;;;;;;;1999.90;999.90;;;;;;;;;;4988307;28;20215;-69
2023/03/09 10:03:51;;;;;;;1999.90;999.90;;;;;;;;;;4989188;28;20213;-70
2023/03/09 10:06:37;;;;;;;1999.90;999.90;;;;;;;;;;4989140;28;20234;-69
2023/03/09 10:09:24;;;;;;;1999.90;999.90;;;;;;;;;;4989247;28;20280;-69
2023/03/09 10:12:13;;;;;;;1999.90;999.90;;;;;;;;;;4989138;28;20224;-71
2023/03/09 10:15:00;;;;;;;1999.90;999.90;;;;;;;;;;4989119;28;20768;-70
2023/03/09 10:17:49;;;;;;;1999.90;999.90;;;;;;;;;;4988062;28;20306;-68
2023/03/09 10:20:37;;;;;;;1999.90;999.90;;;;;;;;;;4990347;28;20196;-69
2023/03/09 10:23:23;;;;;;;1999.90;999.90;;;;;;;;;;4985178;28;20937;-69
2023/03/09 10:26:14;;;;;;;1999.90;999.90;;;;;;;;;;4987075;28;20211;-69
2023/03/09 10:29:03;;;;;;;1999.90;999.90;;;;;;;;;;4983905;28;20701;-69
2023/03/09 10:31:50;;;;;;;1999.90;999.90;;;;;;;;;;4988580;28;20355;-69
2023/03/09 10:34:39;;;;;;;1999.90;999.90;;;;;;;;;;4986863;28;20215;-70
2023/03/09 10:37:25;;;;;;;1999.90;999.90;;;;;;;;;;4988034;28;20298;-69
2023/03/09 10:40:15;;;;;;;1999.90;999.90;;;;;;;;;;4987789;28;20309;-69
2023/03/09 10:43:00;;;;;;;1999.90;999.90;;;;;;;;;;4987698;28;20681;-69
2023/03/09 10:45:45;;;;;;;1999.90;999.90;;;;;;;;;;4987607;28;20275;-69
2023/03/09 10:48:30;;;;;;;1999.90;999.90;;;;;;;;;;4987986;28;20290;-69
2023/03/09 10:51:25;;;;;;;1999.90;999.90;;;;;;;;;;4985839;28;20216;-69
2023/03/09 10:54:21;;;;;;;1999.90;999.90;;;;;;;;;;4987245;28;20224;-70
2023/03/09 10:57:22;;;;;;;1999.90;999.90;;;;;;;;;;4988634;28;20271;-69
2023/03/09 11:00:11;;;;;;;1999.90;999.90;;;;;;;;;;4988613;28;20597;-69
2023/03/09 11:02:59;;;;;;;1999.90;999.90;;;;;;;;;;4987793;28;20324;-69
2023/03/09 11:05:44;;;;;;;1999.90;999.90;;;;;;;;;;4988871;28;20264;-70
2023/03/09 11:08:30;;;;;;;1999.90;999.90;;;;;;;;;;4985137;28;20402;-69
2023/03/09 11:11:17;;;;;;;1999.90;999.90;;;;;;;;;;4988283;28;20259;-68
2023/03/09 11:14:02;;;;;;;1999.90;999.90;;;;;;;;;;4988354;28;20293;-69
2023/03/09 11:16:49;;;;;;;1999.90;999.90;;;;;;;;;;4989326;28;20231;-70
2023/03/09 11:19:34;;;;;;;1999.90;999.90;;;;;;;;;;4989066;28;20332;-69
2023/03/09 11:22:19;;;;;;;1999.90;999.90;;;;;;;;;;4986533;28;20259;-70
2023/03/09 11:25:11;;;;;;;1999.90;999.90;;;;;;;;;;4989343;28;20580;-69
2023/03/09 11:28:00;;;;;;;1999.90;999.90;;;;;;;;;;4989693;28;20294;-69
2023/03/09 11:30:47;;;;;;;1999.90;999.90;;;;;;;;;;4988462;28;20207;-72
2023/03/09 11:33:32;;;;;;;1999.90;999.90;;;;;;;;;;4989136;28;20314;-71
2023/03/09 11:36:18;;;;;;;1999.90;999.90;;;;;;;;;;4987708;28;20807;-71
2023/03/09 11:39:05;;;;;;;1999.90;999.90;;;;;;;;;;4986681;28;20227;-70
2023/03/09 11:41:53;;;;;;;1999.90;999.90;;;;;;;;;;4986334;28;20207;-70
2023/03/09 11:44:40;;;;;;;1999.90;999.90;;;;;;;;;;4987370;28;20220;-72
2023/03/09 11:47:29;;;;;;;1999.90;999.90;;;;;;;;;;4989619;28;20319;-71
2023/03/09 11:50:15;;;;;;;1999.90;999.90;;;;;;;;;;4989484;28;20737;-71
2023/03/09 11:53:02;;;;;;;1999.90;999.90;;;;;;;;;;4990115;28;20602;-71
2023/03/09 11:55:50;;;;;;;1999.90;999.90;;;;;;;;;;4991706;28;20219;-72
2023/03/09 11:58:38;;;;;;;1999.90;999.90;;;;;;;;;;4993485;28;20213;-71
2023/03/09 12:01:26;;;;;;;1999.90;999.90;;;;;;;;;;4993791;28;20703;-71
2023/03/09 12:04:12;;;;;;;1999.90;999.90;;;;;;;;;;4992201;28;20219;-70
2023/03/09 12:07:00;;;;;;;1999.90;999.90;;;;;;;;;;4992931;28;20243;-71
2023/03/09 12:09:49;;;;;;;1999.90;999.90;;;;;;;;;;4993376;28;20255;-71
2023/03/09 12:12:38;;;;;;;1999.90;999.90;;;;;;;;;;4992456;28;20318;-71
2023/03/09 12:15:29;;;;;;;1999.90;999.90;;;;;;;;;;4993387;28;20584;-71
2023/03/09 12:18:18;;;;;;;1999.90;999.90;;;;;;;;;;4992278;28;20429;-70
2023/03/09 12:21:05;;;;;;;1999.90;999.90;;;;;;;;;;4993231;28;21070;-70
2023/03/09 12:23:50;;;;;;;1999.90;999.90;;;;;;;;;;4993260;28;20215;-68
2023/03/09 12:26:35;;;;;;;1999.90;999.90;;;;;;;;;;4993155;28;20586;-70
2023/03/09 12:29:22;;;;;;;1999.90;999.90;;;;;;;;;;4993122;28;20215;-71
2023/03/09 12:32:17;;;;;;;1999.90;999.90;;;;;;;;;;5000638;28;20432;-71
2023/03/09 12:35:05;;;;;;;1999.90;999.90;;;;;;;;;;4991683;28;20204;-71
2023/03/09 12:38:05;;;;;;;1999.90;999.90;;;;;;;;;;4992760;28;20782;-71
2023/03/09 12:40:51;;;;;;;1999.90;999.90;;;;;;;;;;4992955;28;20211;-71
2023/03/09 12:43:54;;;;;;;1999.90;999.90;;;;;;;;;;4992807;28;20703;-70
2023/03/09 12:46:57;;;;;;;1999.90;999.90;;;;;;;;;;4990447;28;20227;-70
2023/03/09 12:49:46;;;;;;;1999.90;999.90;;;;;;;;;;4992535;28;20207;-70
2023/03/09 12:52:43;;;;;;;1999.90;999.90;;;;;;;;;;4992297;28;21307;-70
2023/03/09 12:55:44;;;;;;;1999.90;999.90;;;;;;;;;;4992606;28;20995;-71
2023/03/09 12:58:37;;;;;;;1999.90;999.90;;;;;;;;;;4992567;28;20208;-69
2023/03/09 13:01:30;;;;;;;1999.90;999.90;;;;;;;;;;4992018;28;20413;-70
2023/03/09 13:04:18;;;;;;;1999.90;999.90;;;;;;;;;;4992580;28;20207;-69
2023/03/09 13:07:04;;;;;;;1999.90;999.90;;;;;;;;;;4990288;28;20239;-71
2023/03/09 13:09:53;;;;;;;1999.90;999.90;;;;;;;;;;4992157;28;20202;-70
2023/03/09 13:12:38;;;;;;;1999.90;999.90;;;;;;;;;;4992419;28;20228;-67
2023/03/09 13:15:25;;;;;;;1999.90;999.90;;;;;;;;;;4991687;28;20467;-70
2023/03/09 13:18:13;;;;;;;1999.90;999.90;;;;;;;;;;4991249;28;20233;-70
2023/03/09 13:21:18;;;;;;;1999.90;999.90;;;;;;;;;;4992048;28;20271;-71
2023/03/09 13:24:11;;;;;;;1999.90;999.90;;;;;;;;;;4990954;28;20195;-70
2023/03/09 13:26:57;;;;;;;1999.90;999.90;;;;;;;;;;4989855;28;20747;-69
2023/03/09 13:29:44;;;;;;;1999.90;999.90;;;;;;;;;;4991718;28;20271;-71
2023/03/09 13:32:30;;;;;;;1999.90;999.90;;;;;;;;;;4991741;28;20258;-69
2023/03/09 13:35:17;;;;;;;1999.90;999.90;;;;;;;;;;4992164;28;20294;-70
2023/03/09 13:38:03;;;;;;;1999.90;999.90;;;;;;;;;;4991516;28;20231;-71
2023/03/09 13:40:51;;;;;;;1999.90;999.90;;;;;;;;;;4992060;28;20215;-69
2023/03/09 13:43:36;;;;;;;1999.90;999.90;;;;;;;;;;4989550;28;20413;-70
2023/03/09 13:46:23;;;;;;;1999.90;999.90;;;;;;;;;;4991609;28;20615;-71
2023/03/09 13:49:13;;;;;;;1999.90;999.90;;;;;;;;;;4991282;28;20219;-70
2023/03/09 13:52:00;;;;;;;1999.90;999.90;;;;;;;;;;4991611;28;20275;-70
2023/03/09 13:54:50;;;;;;;1999.90;999.90;;;;;;;;;;4991449;28;20343;-70
2023/03/09 13:57:37;;;;;;;1999.90;999.90;;;;;;;;;;4991117;28;20500;-70
2023/03/09 14:00:25;;;;;;;1999.90;999.90;;;;;;;;;;4991639;28;20215;-70
2023/03/09 14:03:11;;;;;;;1999.90;999.90;;;;;;;;;;4991181;28;20223;-70
2023/03/09 14:06:07;;;;;;;1999.90;999.90;;;;;;;;;;4991435;28;20571;-71
2023/03/09 14:08:52;;;;;;;1999.90;999.90;;;;;;;;;;4991223;28;20211;-70
2023/03/09 14:11:40;;;;;;;1999.90;999.90;;;;;;;;;;4989812;28;20207;-71
2023/03/09 14:14:26;;;;;;;1999.90;999.90;;;;;;;;;;4990922;28;20227;-69
2023/03/09 14:17:16;;;;;;;1999.90;999.90;;;;;;;;;;4988732;28;20231;-69
2023/03/09 14:20:03;;;;;;;1999.90;999.90;;;;;;;;;;4991276;28;20211;-69
2023/03/09 14:22:49;;;;;;;1999.90;999.90;;;;;;;;;;4991053;28;20207;-68
2023/03/09 14:25:34;;;;;;;1999.90;999.90;;;;;;;;;;4988676;28;20772;-69
2023/03/09 14:28:25;;;;;;;1999.90;999.90;;;;;;;;;;4990938;28;20223;-69
2023/03/09 14:31:16;;;;;;;1999.90;999.90;;;;;;;;;;4990240;28;20289;-69
2023/03/09 14:34:03;;;;;;;1999.90;999.90;;;;;;;;;;4988589;28;20305;-69
2023/03/09 14:36:55;;;;;;;1999.90;999.90;;;;;;;;;;4990894;28;20230;-69
2023/03/09 14:39:41;;;;;;;1999.90;999.90;;;;;;;;;;4988867;28;20211;-69
2023/03/09 14:42:28;;;;;;;1999.90;999.90;;;;;;;;;;4988488;28;20549;-69
2023/03/09 14:45:21;;;;;;;1999.90;999.90;;;;;;;;;;4989298;28;20215;-69
2023/03/09 14:48:08;;;;;;;1999.90;999.90;;;;;;;;;;4987617;28;20238;-70
2023/03/09 14:50:53;;;;;;;1999.90;999.90;;;;;;;;;;4989104;28;20215;-70
2023/03/09 14:53:48;;;;;;;1999.90;999.90;;;;;;;;;;4989402;28;20347;-69
2023/03/09 14:56:33;;;;;;;1999.90;999.90;;;;;;;;;;4988851;28;20236;-69
2023/03/09 14:59:20;;;;;;;1999.90;999.90;;;;;;;;;;4989208;28;20319;-70
2023/03/09 15:02:06;;;;;;;1999.90;999.90;;;;;;;;;;4988680;28;20596;-70
2023/03/09 15:04:52;;;;;;;1999.90;999.90;;;;;;;;;;4988145;28;20211;-70
2023/03/09 15:07:38;;;;;;;1999.90;999.90;;;;;;;;;;4987985;28;20309;-70
2023/03/09 15:10:23;;;;;;;1999.90;999.90;;;;;;;;;;4985439;28;20454;-70
2023/03/09 15:13:09;;;;;;;1999.90;999.90;;;;;;;;;;4984561;28;20370;-70
2023/03/09 15:15:54;;;;;;;1999.90;999.90;;;;;;;;;;4987876;28;20211;-70
2023/03/09 15:18:39;;;;;;;1999.90;999.90;;;;;;;;;;4986076;28;20211;-70
2023/03/09 15:21:25;;;;;;;1999.90;999.90;;;;;;;;;;4990494;28;20215;-70
2023/03/09 15:24:10;;;;;;;1999.90;999.90;;;;;;;;;;4989186;28;20227;-70
2023/03/09 15:26:56;;;;;;;1999.90;999.90;;;;;;;;;;4987972;28;20528;-69
2023/03/09 15:29:41;;;;;;;1999.90;999.90;;;;;;;;;;4989812;28;20211;-69
2023/03/09 15:32:26;;;;;;;1999.90;999.90;;;;;;;;;;4992988;28;20581;-69
2023/03/09 15:35:12;;;;;;;1999.90;999.90;;;;;;;;;;4993254;28;20235;-69
2023/03/09 15:37:58;;;;;;;1999.90;999.90;;;;;;;;;;4993792;28;20294;-70
2023/03/09 15:40:43;;;;;;;1999.90;999.90;;;;;;;;;;4992473;28;20346;-69
2023/03/09 15:43:28;;;;;;;1999.90;999.90;;;;;;;;;;4990775;28;20305;-70
2023/03/09 15:46:13;;;;;;;1999.90;999.90;;;;;;;;;;4993080;28;20212;-68
2023/03/09 15:48:58;;;;;;;1999.90;999.90;;;;;;;;;;4993103;28;20223;-70
2023/03/09 15:51:43;;;;;;;1999.90;999.90;;;;;;;;;;4993694;28;20266;-69
2023/03/09 15:54:29;;;;;;;1999.90;999.90;;;;;;;;;;4992631;28;20596;-70
2023/03/09 15:57:14;;;;;;;1999.90;999.90;;;;;;;;;;4992444;28;20609;-69
2023/03/09 15:59:59;;;;;;;1999.90;999.90;;;;;;;;;;4992651;28;20274;-70
2023/03/09 16:02:45;;;;;;;1999.90;999.90;;;;;;;;;;4992522;28;20794;-70
2023/03/09 16:05:30;;;;;;;1999.90;999.90;;;;;;;;;;4993017;28;20320;-70
2023/03/09 16:08:14;;;;;;;1999.90;999.90;;;;;;;;;;4992053;28;20343;-70
2023/03/09 16:11:01;;;;;;;1999.90;999.90;;;;;;;;;;4991154;28;20339;-69
2023/03/09 16:13:46;;;;;;;1999.90;999.90;;;;;;;;;;4992180;28;20282;-69
2023/03/09 16:16:31;;;;;;;1999.90;999.90;;;;;;;;;;4991396;28;20235;-69
2023/03/09 16:19:16;;;;;;;1999.90;999.90;;;;;;;;;;4992103;28;20315;-72
2023/03/09 16:22:02;;;;;;;1999.90;999.90;;;;;;;;;;4993996;28;20215;-74
2023/03/09 16:24:47;;;;;;;1999.90;999.90;;;;;;;;;;4996735;28;20706;-73
2023/03/09 16:27:33;;;;;;;1999.90;999.90;;;;;;;;;;4992439;28;20329;-75
2023/03/09 16:30:18;;;;;;;1999.90;999.90;;;;;;;;;;4993207;28;20692;-73
2023/03/09 16:33:04;;;;;;;1999.90;999.90;;;;;;;;;;4993134;28;20702;-73
2023/03/09 16:35:56;;;;;;;1999.90;999.90;;;;;;;;;;4992323;28;20207;-72
2023/03/09 16:38:41;;;;;;;1999.90;999.90;;;;;;;;;;4991369;28;20207;-74
2023/03/09 16:41:26;;;;;;;1999.90;999.90;;;;;;;;;;4991561;28;20330;-73
2023/03/09 16:44:22;;;;;;;1999.90;999.90;;;;;;;;;;4994634;28;20334;-73
2023/03/09 16:47:07;;;;;;;1999.90;999.90;;;;;;;;;;4990200;28;20234;-74
2023/03/09 16:49:56;;;;;;;1999.90;999.90;;;;;;;;;;4991680;28;20304;-74
2023/03/09 16:52:41;;;;;;;1999.90;999.90;;;;;;;;;;4991186;28;20590;-74
2023/03/09 16:55:26;;;;;;;1999.90;999.90;;;;;;;;;;4992516;28;20688;-74
2023/03/09 16:58:11;;;;;;;1999.90;999.90;;;;;;;;;;4991211;28;20239;-75
2023/03/09 17:00:57;;;;;;;1999.90;999.90;;;;;;;;;;4992320;28;20215;-74
2023/03/09 17:03:42;;;;;;;1999.90;999.90;;;;;;;;;;4990535;28;20301;-74
2023/03/09 17:06:27;;;;;;;1999.90;999.90;;;;;;;;;;4986882;28;20450;-73
2023/03/09 17:09:14;;;;;;;1999.90;999.90;;;;;;;;;;4991407;28;20239;-71
2023/03/09 17:11:58;;;;;;;1999.90;999.90;;;;;;;;;;4992430;28;20699;-73
2023/03/09 17:14:43;;;;;;;1999.90;999.90;;;;;;;;;;4992463;28;20224;-73
2023/03/09 17:17:29;;;;;;;1999.90;999.90;;;;;;;;;;4991155;28;20227;-74
2023/03/09 17:20:14;;;;;;;1999.90;999.90;;;;;;;;;;4991897;28;20441;-73
2023/03/09 17:23:00;;;;;;;1999.90;999.90;;;;;;;;;;4990876;28;20210;-73
2023/03/09 17:25:45;;;;;;;1999.90;999.90;;;;;;;;;;4990263;28;20219;-73
2023/03/09 17:28:30;;;;;;;1999.90;999.90;;;;;;;;;;4989355;28;20820;-72
2023/03/09 17:31:16;;;;;;;1999.90;999.90;;;;;;;;;;4990660;28;20845;-72
2023/03/09 17:34:02;;;;;;;1999.90;999.90;;;;;;;;;;4991873;28;20279;-73
2023/03/09 17:36:48;;;;;;;1999.90;999.90;;;;;;;;;;4988949;28;20235;-73
2023/03/09 17:39:33;;;;;;;1999.90;999.90;;;;;;;;;;4992063;28;20211;-73
2023/03/09 17:42:18;;;;;;;1999.90;999.90;;;;;;;;;;4990939;28;20583;-72
2023/03/09 17:45:03;;;;;;;1999.90;999.90;;;;;;;;;;4991050;28;20290;-73
2023/03/09 17:47:48;;;;;;;1999.90;999.90;;;;;;;;;;4990540;28;20739;-72
2023/03/09 17:50:34;;;;;;;1999.90;999.90;;;;;;;;;;4985064;28;20211;-72
2023/03/09 17:53:19;;;;;;;1999.90;999.90;;;;;;;;;;4987198;28;20913;-71
2023/03/09 17:56:05;;;;;;;1999.90;999.90;;;;;;;;;;4990892;28;20235;-72
2023/03/09 17:58:51;;;;;;;1999.90;999.90;;;;;;;;;;4993592;28;20215;-72
2023/03/09 18:01:35;;;;;;;1999.90;999.90;;;;;;;;;;4993712;28;20372;-72
2023/03/09 18:04:20;;;;;;;1999.90;999.90;;;;;;;;;;4998292;28;20273;-71
2023/03/09 18:07:06;;;;;;;1999.90;999.90;;;;;;;;;;4990428;28;20310;-73
2023/03/09 18:09:51;;;;;;;1999.90;999.90;;;;;;;;;;4992516;28;20653;-72
2023/03/09 18:12:36;;;;;;;1999.90;999.90;;;;;;;;;;4993269;28;20207;-73
2023/03/09 18:15:24;;;;;;;1999.90;999.90;;;;;;;;;;4993215;28;20227;-72
2023/03/09 18:18:09;;;;;;;1999.90;999.90;;;;;;;;;;4993342;28;20231;-72
2023/03/09 18:20:54;;;;;;;1999.90;999.90;;;;;;;;;;4993669;28;20280;-71
2023/03/09 18:23:40;;;;;;;1999.90;999.90;;;;;;;;;;4983229;28;20246;-72
2023/03/09 18:26:28;;;;;;;1999.90;999.90;;;;;;;;;;4983823;28;20598;-72
2023/03/09 18:29:19;;;;;;;1999.90;999.90;;;;;;;;;;4999644;28;20704;-72
2023/03/09 18:32:05;;;;;;;1999.90;999.90;;;;;;;;;;4992402;28;20454;-71
2023/03/09 18:34:50;;;;;;;1999.90;999.90;;;;;;;;;;4993327;28;20711;-72